sensor_id;sensor_type;location;lat;lon;timestamp;P1;durP1;ratioP1;P2;durP2;ratioP2
19016;SDS011;9641;51.494;6.670;2022-08-14T00:02:38;3.72;;;3.30;;
19016;SDS011;9641;51.494;6.670;2022-08-14T00:05:07;6.30;;;3.85;;
19016;SDS011;9641;51.494;6.670;2022-08-14T00:07:34;4.43;;;3.50;;
19016;SDS011;9641;51.494;6.670;2022-08-14T00:10:02;7.40;;;3.78;;
19016;SDS011;9641;51.494;6.670;2022-08-14T00:12:30;3.83;;;3.45;;
19016;SDS011;9641;51.494;6.670;2022-08-14T00:14:58;4.80;;;3.85;;
19016;SDS011;9641;51.494;6.670;2022-08-14T00:17:25;6.80;;;4.32;;
19016;SDS011;9641;51.494;6.670;2022-08-14T00:19:54;6.05;;;4.22;;
19016;SDS011;9641;51.494;6.670;2022-08-14T00:22:21;5.60;;;4.10;;
19016;SDS011;9641;51.494;6.670;2022-08-14T00:24:48;4.20;;;3.60;;
19016;SDS011;9641;51.494;6.670;2022-08-14T00:27:14;8.93;;;4.30;;
19016;SDS011;9641;51.494;6.670;2022-08-14T00:29:41;5.18;;;3.65;;
19016;SDS011;9641;51.494;6.670;2022-08-14T00:32:10;5.32;;;3.80;;
19016;SDS011;9641;51.494;6.670;2022-08-14T00:34:37;5.30;;;3.90;;
19016;SDS011;9641;51.494;6.670;2022-08-14T00:37:06;7.63;;;4.45;;
19016;SDS011;9641;51.494;6.670;2022-08-14T00:39:32;5.65;;;4.80;;
19016;SDS011;9641;51.494;6.670;2022-08-14T00:42:00;11.70;;;4.60;;
19016;SDS011;9641;51.494;6.670;2022-08-14T00:44:27;7.82;;;4.85;;
19016;SDS011;9641;51.494;6.670;2022-08-14T00:46:54;6.88;;;5.10;;
19016;SDS011;9641;51.494;6.670;2022-08-14T00:49:21;7.60;;;4.88;;
19016;SDS011;9641;51.494;6.670;2022-08-14T00:51:48;7.63;;;4.68;;
19016;SDS011;9641;51.494;6.670;2022-08-14T00:54:16;6.90;;;4.63;;
19016;SDS011;9641;51.494;6.670;2022-08-14T00:56:43;6.38;;;4.47;;
19016;SDS011;9641;51.494;6.670;2022-08-14T00:59:10;7.60;;;4.25;;
19016;SDS011;9641;51.494;6.670;2022-08-14T01:01:37;5.07;;;3.90;;
19016;SDS011;9641;51.494;6.670;2022-08-14T01:04:05;6.90;;;4.40;;
19016;SDS011;9641;51.494;6.670;2022-08-14T01:06:32;5.55;;;4.43;;
19016;SDS011;9641;51.494;6.670;2022-08-14T01:08:59;6.68;;;4.72;;
19016;SDS011;9641;51.494;6.670;2022-08-14T01:11:28;8.10;;;5.20;;
19016;SDS011;9641;51.494;6.670;2022-08-14T01:13:56;8.10;;;4.97;;
19016;SDS011;9641;51.494;6.670;2022-08-14T01:16:25;7.30;;;4.60;;
19016;SDS011;9641;51.494;6.670;2022-08-14T01:18:54;8.70;;;4.95;;
19016;SDS011;9641;51.494;6.670;2022-08-14T01:21:40;8.73;;;4.75;;
19016;SDS011;9641;51.494;6.670;2022-08-14T01:24:09;10.35;;;5.35;;
19016;SDS011;9641;51.494;6.670;2022-08-14T01:26:39;6.65;;;4.40;;
19016;SDS011;9641;51.494;6.670;2022-08-14T01:29:08;10.75;;;5.20;;
19016;SDS011;9641;51.494;6.670;2022-08-14T01:31:35;8.77;;;5.57;;
19016;SDS011;9641;51.494;6.670;2022-08-14T01:34:05;6.72;;;4.85;;
19016;SDS011;9641;51.494;6.670;2022-08-14T01:36:32;8.13;;;5.22;;
19016;SDS011;9641;51.494;6.670;2022-08-14T01:39:05;8.48;;;5.00;;
19016;SDS011;9641;51.494;6.670;2022-08-14T01:41:34;8.10;;;5.28;;
19016;SDS011;9641;51.494;6.670;2022-08-14T01:44:03;8.30;;;5.50;;
19016;SDS011;9641;51.494;6.670;2022-08-14T01:46:35;8.43;;;5.38;;
19016;SDS011;9641;51.494;6.670;2022-08-14T01:49:06;7.63;;;5.10;;
19016;SDS011;9641;51.494;6.670;2022-08-14T01:51:35;10.05;;;5.57;;
19016;SDS011;9641;51.494;6.670;2022-08-14T01:54:05;8.10;;;5.55;;
19016;SDS011;9641;51.494;6.670;2022-08-14T01:56:35;8.20;;;5.55;;
19016;SDS011;9641;51.494;6.670;2022-08-14T01:59:04;8.82;;;5.85;;
19016;SDS011;9641;51.494;6.670;2022-08-14T02:01:32;10.77;;;5.68;;
19016;SDS011;9641;51.494;6.670;2022-08-14T02:04:04;9.43;;;5.60;;
19016;SDS011;9641;51.494;6.670;2022-08-14T02:06:31;7.72;;;5.35;;
19016;SDS011;9641;51.494;6.670;2022-08-14T02:08:58;7.13;;;4.93;;
19016;SDS011;9641;51.494;6.670;2022-08-14T02:11:29;7.13;;;4.78;;
19016;SDS011;9641;51.494;6.670;2022-08-14T02:13:56;7.70;;;4.97;;
19016;SDS011;9641;51.494;6.670;2022-08-14T02:16:29;6.97;;;5.10;;
19016;SDS011;9641;51.494;6.670;2022-08-14T02:18:58;6.93;;;4.60;;
19016;SDS011;9641;51.494;6.670;2022-08-14T02:21:27;5.95;;;4.53;;
19016;SDS011;9641;51.494;6.670;2022-08-14T02:23:57;6.47;;;4.75;;
19016;SDS011;9641;51.494;6.670;2022-08-14T02:26:26;6.53;;;4.50;;
19016;SDS011;9641;51.494;6.670;2022-08-14T02:28:57;5.97;;;4.38;;
19016;SDS011;9641;51.494;6.670;2022-08-14T02:31:25;5.85;;;4.72;;
19016;SDS011;9641;51.494;6.670;2022-08-14T02:33:57;7.28;;;4.97;;
19016;SDS011;9641;51.494;6.670;2022-08-14T02:36:24;5.00;;;4.38;;
19016;SDS011;9641;51.494;6.670;2022-08-14T02:38:51;6.15;;;4.88;;
19016;SDS011;9641;51.494;6.670;2022-08-14T02:41:18;7.72;;;4.55;;
19016;SDS011;9641;51.494;6.670;2022-08-14T02:43:47;5.82;;;4.68;;
19016;SDS011;9641;51.494;6.670;2022-08-14T02:46:14;6.10;;;4.50;;
19016;SDS011;9641;51.494;6.670;2022-08-14T02:48:42;5.95;;;4.70;;
19016;SDS011;9641;51.494;6.670;2022-08-14T02:51:10;8.50;;;5.15;;
19016;SDS011;9641;51.494;6.670;2022-08-14T02:53:38;5.97;;;4.30;;
19016;SDS011;9641;51.494;6.670;2022-08-14T02:56:06;7.55;;;5.15;;
19016;SDS011;9641;51.494;6.670;2022-08-14T02:58:35;5.97;;;4.63;;
19016;SDS011;9641;51.494;6.670;2022-08-14T03:01:05;6.22;;;4.72;;
19016;SDS011;9641;51.494;6.670;2022-08-14T03:03:32;6.93;;;4.85;;
19016;SDS011;9641;51.494;6.670;2022-08-14T03:06:01;5.85;;;4.90;;
19016;SDS011;9641;51.494;6.670;2022-08-14T03:08:28;6.90;;;5.00;;
19016;SDS011;9641;51.494;6.670;2022-08-14T03:10:57;7.95;;;4.85;;
19016;SDS011;9641;51.494;6.670;2022-08-14T03:13:25;9.67;;;5.40;;
19016;SDS011;9641;51.494;6.670;2022-08-14T03:15:52;7.95;;;5.20;;
19016;SDS011;9641;51.494;6.670;2022-08-14T03:18:20;5.97;;;5.17;;
19016;SDS011;9641;51.494;6.670;2022-08-14T03:20:48;6.77;;;4.77;;
19016;SDS011;9641;51.494;6.670;2022-08-14T03:23:15;8.50;;;5.60;;
19016;SDS011;9641;51.494;6.670;2022-08-14T03:25:42;6.78;;;4.65;;
19016;SDS011;9641;51.494;6.670;2022-08-14T03:28:10;10.10;;;5.10;;
19016;SDS011;9641;51.494;6.670;2022-08-14T03:30:37;7.25;;;5.38;;
19016;SDS011;9641;51.494;6.670;2022-08-14T03:33:05;10.83;;;5.27;;
19016;SDS011;9641;51.494;6.670;2022-08-14T03:35:34;7.03;;;5.50;;
19016;SDS011;9641;51.494;6.670;2022-08-14T03:38:04;10.23;;;5.60;;
19016;SDS011;9641;51.494;6.670;2022-08-14T03:40:34;9.80;;;5.73;;
19016;SDS011;9641;51.494;6.670;2022-08-14T03:43:03;6.90;;;5.17;;
19016;SDS011;9641;51.494;6.670;2022-08-14T03:45:31;6.77;;;5.40;;
19016;SDS011;9641;51.494;6.670;2022-08-14T03:48:00;9.33;;;5.60;;
19016;SDS011;9641;51.494;6.670;2022-08-14T03:50:29;13.07;;;5.23;;
19016;SDS011;9641;51.494;6.670;2022-08-14T03:52:58;8.77;;;5.43;;
19016;SDS011;9641;51.494;6.670;2022-08-14T03:55:25;7.73;;;5.57;;
19016;SDS011;9641;51.494;6.670;2022-08-14T03:57:52;9.73;;;5.90;;
19016;SDS011;9641;51.494;6.670;2022-08-14T04:00:20;8.43;;;5.97;;
19016;SDS011;9641;51.494;6.670;2022-08-14T04:02:47;7.27;;;5.67;;
19016;SDS011;9641;51.494;6.670;2022-08-14T04:05:14;6.90;;;5.73;;
19016;SDS011;9641;51.494;6.670;2022-08-14T04:07:41;7.97;;;5.43;;
19016;SDS011;9641;51.494;6.670;2022-08-14T04:10:09;8.63;;;6.00;;
19016;SDS011;9641;51.494;6.670;2022-08-14T04:12:36;10.90;;;5.40;;
19016;SDS011;9641;51.494;6.670;2022-08-14T04:15:04;9.30;;;6.10;;
19016;SDS011;9641;51.494;6.670;2022-08-14T04:17:31;8.50;;;6.27;;
19016;SDS011;9641;51.494;6.670;2022-08-14T04:19:59;8.33;;;5.93;;
19016;SDS011;9641;51.494;6.670;2022-08-14T04:22:28;8.47;;;5.70;;
19016;SDS011;9641;51.494;6.670;2022-08-14T04:24:55;12.50;;;5.70;;
19016;SDS011;9641;51.494;6.670;2022-08-14T04:27:24;8.53;;;6.27;;
19016;SDS011;9641;51.494;6.670;2022-08-14T04:29:52;9.87;;;5.53;;
19016;SDS011;9641;51.494;6.670;2022-08-14T04:32:21;8.97;;;5.80;;
19016;SDS011;9641;51.494;6.670;2022-08-14T04:34:50;11.00;;;6.03;;
19016;SDS011;9641;51.494;6.670;2022-08-14T04:37:18;10.13;;;5.60;;
19016;SDS011;9641;51.494;6.670;2022-08-14T04:40:04;8.90;;;5.83;;
19016;SDS011;9641;51.494;6.670;2022-08-14T04:42:51;8.30;;;6.13;;
19016;SDS011;9641;51.494;6.670;2022-08-14T04:45:36;8.10;;;6.07;;
19016;SDS011;9641;51.494;6.670;2022-08-14T04:48:05;9.97;;;6.13;;
19016;SDS011;9641;51.494;6.670;2022-08-14T04:50:38;10.27;;;6.27;;
19016;SDS011;9641;51.494;6.670;2022-08-14T04:53:09;8.40;;;5.93;;
19016;SDS011;9641;51.494;6.670;2022-08-14T04:55:37;7.53;;;6.03;;
19016;SDS011;9641;51.494;6.670;2022-08-14T04:58:05;7.90;;;5.80;;
19016;SDS011;9641;51.494;6.670;2022-08-14T05:00:33;9.43;;;6.40;;
19016;SDS011;9641;51.494;6.670;2022-08-14T05:03:01;10.00;;;6.13;;
19016;SDS011;9641;51.494;6.670;2022-08-14T05:05:30;8.17;;;6.00;;
19016;SDS011;9641;51.494;6.670;2022-08-14T05:08:02;10.57;;;6.10;;
19016;SDS011;9641;51.494;6.670;2022-08-14T05:10:33;9.53;;;5.73;;
19016;SDS011;9641;51.494;6.670;2022-08-14T05:13:01;6.93;;;5.80;;
19016;SDS011;9641;51.494;6.670;2022-08-14T05:15:31;14.63;;;6.10;;
19016;SDS011;9641;51.494;6.670;2022-08-14T05:18:01;7.23;;;5.60;;
19016;SDS011;9641;51.494;6.670;2022-08-14T05:20:29;7.03;;;6.27;;
19016;SDS011;9641;51.494;6.670;2022-08-14T05:22:57;7.87;;;6.17;;
19016;SDS011;9641;51.494;6.670;2022-08-14T05:25:24;8.03;;;5.80;;
19016;SDS011;9641;51.494;6.670;2022-08-14T05:27:51;10.07;;;6.43;;
19016;SDS011;9641;51.494;6.670;2022-08-14T05:30:18;9.20;;;6.90;;
19016;SDS011;9641;51.494;6.670;2022-08-14T05:32:46;8.77;;;6.40;;
19016;SDS011;9641;51.494;6.670;2022-08-14T05:35:13;9.67;;;6.47;;
19016;SDS011;9641;51.494;6.670;2022-08-14T05:37:40;8.63;;;6.07;;
19016;SDS011;9641;51.494;6.670;2022-08-14T05:40:07;7.70;;;6.20;;
19016;SDS011;9641;51.494;6.670;2022-08-14T05:42:35;11.83;;;6.40;;
19016;SDS011;9641;51.494;6.670;2022-08-14T05:45:03;8.13;;;6.43;;
19016;SDS011;9641;51.494;6.670;2022-08-14T05:47:31;7.78;;;5.90;;
19016;SDS011;9641;51.494;6.670;2022-08-14T05:50:05;7.10;;;5.95;;
19016;SDS011;9641;51.494;6.670;2022-08-14T05:52:33;8.75;;;5.90;;
19016;SDS011;9641;51.494;6.670;2022-08-14T05:55:00;7.45;;;6.10;;
19016;SDS011;9641;51.494;6.670;2022-08-14T05:57:27;8.57;;;6.53;;
19016;SDS011;9641;51.494;6.670;2022-08-14T05:59:55;8.38;;;5.88;;
19016;SDS011;9641;51.494;6.670;2022-08-14T06:02:22;9.57;;;6.30;;
19016;SDS011;9641;51.494;6.670;2022-08-14T06:04:49;9.25;;;5.85;;
19016;SDS011;9641;51.494;6.670;2022-08-14T06:07:17;9.07;;;5.82;;
19016;SDS011;9641;51.494;6.670;2022-08-14T06:09:44;14.82;;;5.95;;
19016;SDS011;9641;51.494;6.670;2022-08-14T06:12:12;9.73;;;6.40;;
19016;SDS011;9641;51.494;6.670;2022-08-14T06:14:38;7.43;;;5.80;;
19016;SDS011;9641;51.494;6.670;2022-08-14T06:17:06;7.25;;;5.93;;
19016;SDS011;9641;51.494;6.670;2022-08-14T06:19:33;11.63;;;5.75;;
19016;SDS011;9641;51.494;6.670;2022-08-14T06:21:59;8.85;;;5.70;;
19016;SDS011;9641;51.494;6.670;2022-08-14T06:24:28;8.00;;;5.72;;
19016;SDS011;9641;51.494;6.670;2022-08-14T06:26:55;7.32;;;5.40;;
19016;SDS011;9641;51.494;6.670;2022-08-14T06:29:24;7.85;;;5.72;;
19016;SDS011;9641;51.494;6.670;2022-08-14T06:31:51;7.55;;;5.75;;
19016;SDS011;9641;51.494;6.670;2022-08-14T06:34:17;7.25;;;5.75;;
19016;SDS011;9641;51.494;6.670;2022-08-14T06:36:44;6.97;;;5.57;;
19016;SDS011;9641;51.494;6.670;2022-08-14T06:39:11;6.95;;;5.55;;
19016;SDS011;9641;51.494;6.670;2022-08-14T06:41:39;7.15;;;6.18;;
19016;SDS011;9641;51.494;6.670;2022-08-14T06:44:06;7.45;;;5.90;;
19016;SDS011;9641;51.494;6.670;2022-08-14T06:46:33;9.90;;;6.32;;
19016;SDS011;9641;51.494;6.670;2022-08-14T06:49:00;7.90;;;6.15;;
19016;SDS011;9641;51.494;6.670;2022-08-14T06:51:35;6.60;;;5.75;;
19016;SDS011;9641;51.494;6.670;2022-08-14T06:54:03;8.23;;;5.90;;
19016;SDS011;9641;51.494;6.670;2022-08-14T06:56:30;7.90;;;6.72;;
19016;SDS011;9641;51.494;6.670;2022-08-14T06:58:58;7.65;;;5.70;;
19016;SDS011;9641;51.494;6.670;2022-08-14T07:01:28;8.50;;;5.80;;
19016;SDS011;9641;51.494;6.670;2022-08-14T07:04:13;8.57;;;6.35;;
19016;SDS011;9641;51.494;6.670;2022-08-14T07:06:57;9.15;;;5.95;;
19016;SDS011;9641;51.494;6.670;2022-08-14T07:09:24;11.63;;;6.25;;
19016;SDS011;9641;51.494;6.670;2022-08-14T07:11:51;9.15;;;5.88;;
19016;SDS011;9641;51.494;6.670;2022-08-14T07:14:19;8.10;;;5.88;;
19016;SDS011;9641;51.494;6.670;2022-08-14T07:16:46;7.43;;;5.40;;
19016;SDS011;9641;51.494;6.670;2022-08-14T07:19:15;7.93;;;6.32;;
19016;SDS011;9641;51.494;6.670;2022-08-14T07:21:42;8.20;;;6.00;;
19016;SDS011;9641;51.494;6.670;2022-08-14T07:24:09;6.13;;;5.47;;
19016;SDS011;9641;51.494;6.670;2022-08-14T07:26:36;10.52;;;6.28;;
19016;SDS011;9641;51.494;6.670;2022-08-14T07:29:04;6.63;;;5.88;;
19016;SDS011;9641;51.494;6.670;2022-08-14T07:31:32;8.68;;;5.72;;
19016;SDS011;9641;51.494;6.670;2022-08-14T07:34:01;6.10;;;5.50;;
19016;SDS011;9641;51.494;6.670;2022-08-14T07:36:28;9.40;;;5.63;;
19016;SDS011;9641;51.494;6.670;2022-08-14T07:38:58;7.35;;;5.80;;
19016;SDS011;9641;51.494;6.670;2022-08-14T07:41:28;5.45;;;4.82;;
19016;SDS011;9641;51.494;6.670;2022-08-14T07:43:55;7.95;;;5.50;;
19016;SDS011;9641;51.494;6.670;2022-08-14T07:46:22;6.55;;;5.45;;
19016;SDS011;9641;51.494;6.670;2022-08-14T07:48:51;10.43;;;6.00;;
19016;SDS011;9641;51.494;6.670;2022-08-14T07:51:18;7.13;;;5.47;;
19016;SDS011;9641;51.494;6.670;2022-08-14T07:53:45;7.22;;;5.55;;
19016;SDS011;9641;51.494;6.670;2022-08-14T07:56:12;11.07;;;6.10;;
19016;SDS011;9641;51.494;6.670;2022-08-14T07:58:39;7.88;;;5.45;;
19016;SDS011;9641;51.494;6.670;2022-08-14T08:01:06;6.15;;;5.55;;
19016;SDS011;9641;51.494;6.670;2022-08-14T08:03:36;7.05;;;5.38;;
19016;SDS011;9641;51.494;6.670;2022-08-14T08:06:13;6.55;;;5.30;;
19016;SDS011;9641;51.494;6.670;2022-08-14T08:08:41;5.55;;;4.95;;
19016;SDS011;9641;51.494;6.670;2022-08-14T08:11:09;6.47;;;5.47;;
19016;SDS011;9641;51.494;6.670;2022-08-14T08:13:40;7.10;;;5.25;;
19016;SDS011;9641;51.494;6.670;2022-08-14T08:16:07;9.13;;;5.25;;
19016;SDS011;9641;51.494;6.670;2022-08-14T08:18:34;5.50;;;4.93;;
19016;SDS011;9641;51.494;6.670;2022-08-14T08:21:01;6.47;;;5.25;;
19016;SDS011;9641;51.494;6.670;2022-08-14T08:23:30;6.53;;;5.00;;
19016;SDS011;9641;51.494;6.670;2022-08-14T08:25:58;7.32;;;5.25;;
19016;SDS011;9641;51.494;6.670;2022-08-14T08:28:26;5.47;;;4.90;;
19016;SDS011;9641;51.494;6.670;2022-08-14T08:30:54;7.03;;;5.30;;
19016;SDS011;9641;51.494;6.670;2022-08-14T08:33:22;6.60;;;5.53;;
19016;SDS011;9641;51.494;6.670;2022-08-14T08:35:52;11.63;;;6.28;;
19016;SDS011;9641;51.494;6.670;2022-08-14T08:38:23;6.63;;;5.47;;
19016;SDS011;9641;51.494;6.670;2022-08-14T08:40:54;6.78;;;6.07;;
19016;SDS011;9641;51.494;6.670;2022-08-14T08:43:24;9.77;;;5.55;;
19016;SDS011;9641;51.494;6.670;2022-08-14T08:45:53;6.05;;;4.97;;
19016;SDS011;9641;51.494;6.670;2022-08-14T08:48:25;5.80;;;5.20;;
19016;SDS011;9641;51.494;6.670;2022-08-14T08:50:54;7.25;;;5.30;;
19016;SDS011;9641;51.494;6.670;2022-08-14T08:53:22;9.23;;;5.35;;
19016;SDS011;9641;51.494;6.670;2022-08-14T08:55:56;6.68;;;5.47;;
19016;SDS011;9641;51.494;6.670;2022-08-14T08:58:24;9.13;;;5.50;;
19016;SDS011;9641;51.494;6.670;2022-08-14T09:00:52;5.18;;;4.72;;
19016;SDS011;9641;51.494;6.670;2022-08-14T09:03:21;6.88;;;5.30;;
19016;SDS011;9641;51.494;6.670;2022-08-14T09:05:51;6.43;;;5.75;;
19016;SDS011;9641;51.494;6.670;2022-08-14T09:08:26;6.53;;;5.45;;
19016;SDS011;9641;51.494;6.670;2022-08-14T09:11:00;7.07;;;5.45;;
19016;SDS011;9641;51.494;6.670;2022-08-14T09:13:29;10.75;;;5.88;;
19016;SDS011;9641;51.494;6.670;2022-08-14T09:15:56;10.93;;;5.82;;
19016;SDS011;9641;51.494;6.670;2022-08-14T09:18:29;6.80;;;5.40;;
19016;SDS011;9641;51.494;6.670;2022-08-14T09:20:57;6.90;;;5.63;;
19016;SDS011;9641;51.494;6.670;2022-08-14T09:23:24;6.18;;;5.35;;
19016;SDS011;9641;51.494;6.670;2022-08-14T09:25:52;7.65;;;5.80;;
19016;SDS011;9641;51.494;6.670;2022-08-14T09:28:23;8.35;;;5.63;;
19016;SDS011;9641;51.494;6.670;2022-08-14T09:30:53;7.15;;;5.22;;
19016;SDS011;9641;51.494;6.670;2022-08-14T09:36:31;9.10;;;6.00;;
19016;SDS011;9641;51.494;6.670;2022-08-14T09:39:22;9.13;;;5.53;;
19016;SDS011;9641;51.494;6.670;2022-08-14T09:42:11;6.78;;;5.10;;
19016;SDS011;9641;51.494;6.670;2022-08-14T09:44:54;10.82;;;5.70;;
19016;SDS011;9641;51.494;6.670;2022-08-14T09:47:41;8.73;;;6.13;;
19016;SDS011;9641;51.494;6.670;2022-08-14T09:50:23;10.02;;;6.30;;
19016;SDS011;9641;51.494;6.670;2022-08-14T09:52:55;8.10;;;4.93;;
19016;SDS011;9641;51.494;6.670;2022-08-14T09:55:27;9.10;;;4.78;;
19016;SDS011;9641;51.494;6.670;2022-08-14T09:58:07;7.25;;;4.60;;
19016;SDS011;9641;51.494;6.670;2022-08-14T10:00:42;4.88;;;4.28;;
19016;SDS011;9641;51.494;6.670;2022-08-14T10:03:11;5.43;;;4.28;;
19016;SDS011;9641;51.494;6.670;2022-08-14T10:05:39;5.57;;;4.97;;
19016;SDS011;9641;51.494;6.670;2022-08-14T10:08:15;8.05;;;5.20;;
19016;SDS011;9641;51.494;6.670;2022-08-14T10:10:44;8.63;;;5.25;;
19016;SDS011;9641;51.494;6.670;2022-08-14T10:13:20;4.45;;;3.83;;
19016;SDS011;9641;51.494;6.670;2022-08-14T10:16:04;4.40;;;4.00;;
19016;SDS011;9641;51.494;6.670;2022-08-14T10:18:31;5.47;;;3.97;;
19016;SDS011;9641;51.494;6.670;2022-08-14T10:20:58;5.60;;;4.25;;
19016;SDS011;9641;51.494;6.670;2022-08-14T10:23:38;5.07;;;3.85;;
19016;SDS011;9641;51.494;6.670;2022-08-14T10:26:13;5.22;;;4.40;;
19016;SDS011;9641;51.494;6.670;2022-08-14T10:28:43;4.32;;;3.78;;
19016;SDS011;9641;51.494;6.670;2022-08-14T10:31:18;5.15;;;3.92;;
19016;SDS011;9641;51.494;6.670;2022-08-14T10:34:02;4.28;;;3.78;;
19016;SDS011;9641;51.494;6.670;2022-08-14T10:36:31;8.35;;;4.03;;
19016;SDS011;9641;51.494;6.670;2022-08-14T10:39:00;4.32;;;3.92;;
19016;SDS011;9641;51.494;6.670;2022-08-14T10:41:34;4.78;;;4.38;;
19016;SDS011;9641;51.494;6.670;2022-08-14T10:44:05;5.13;;;4.00;;
19016;SDS011;9641;51.494;6.670;2022-08-14T10:46:54;7.93;;;4.03;;
19016;SDS011;9641;51.494;6.670;2022-08-14T10:49:22;9.45;;;3.83;;
19016;SDS011;9641;51.494;6.670;2022-08-14T10:52:02;7.65;;;4.07;;
19016;SDS011;9641;51.494;6.670;2022-08-14T10:54:34;4.22;;;3.83;;
19016;SDS011;9641;51.494;6.670;2022-08-14T10:57:10;4.32;;;3.97;;
19016;SDS011;9641;51.494;6.670;2022-08-14T10:59:45;7.60;;;4.20;;
19016;SDS011;9641;51.494;6.670;2022-08-14T11:02:23;5.20;;;4.70;;
19016;SDS011;9641;51.494;6.670;2022-08-14T11:04:59;11.02;;;4.53;;
19016;SDS011;9641;51.494;6.670;2022-08-14T11:07:28;5.18;;;4.07;;
19016;SDS011;9641;51.494;6.670;2022-08-14T11:09:56;5.13;;;4.47;;
19016;SDS011;9641;51.494;6.670;2022-08-14T11:12:24;5.40;;;4.70;;
19016;SDS011;9641;51.494;6.670;2022-08-14T11:14:53;6.60;;;4.50;;
19016;SDS011;9641;51.494;6.670;2022-08-14T11:17:26;4.90;;;4.30;;
19016;SDS011;9641;51.494;6.670;2022-08-14T11:19:54;6.97;;;4.50;;
19016;SDS011;9641;51.494;6.670;2022-08-14T11:22:25;6.13;;;4.32;;
19016;SDS011;9641;51.494;6.670;2022-08-14T11:24:55;4.60;;;4.00;;
19016;SDS011;9641;51.494;6.670;2022-08-14T11:27:28;11.32;;;3.65;;
19016;SDS011;9641;51.494;6.670;2022-08-14T11:29:57;5.25;;;3.88;;
19016;SDS011;9641;51.494;6.670;2022-08-14T11:32:29;4.47;;;4.07;;
19016;SDS011;9641;51.494;6.670;2022-08-14T11:34:56;5.75;;;3.63;;
19016;SDS011;9641;51.494;6.670;2022-08-14T11:37:23;4.32;;;3.60;;
19016;SDS011;9641;51.494;6.670;2022-08-14T11:39:58;4.10;;;3.70;;
19016;SDS011;9641;51.494;6.670;2022-08-14T11:42:26;4.22;;;3.75;;
19016;SDS011;9641;51.494;6.670;2022-08-14T11:44:55;5.32;;;4.20;;
19016;SDS011;9641;51.494;6.670;2022-08-14T11:47:24;3.95;;;3.65;;
19016;SDS011;9641;51.494;6.670;2022-08-14T11:49:53;4.00;;;3.60;;
19016;SDS011;9641;51.494;6.670;2022-08-14T11:52:21;3.53;;;3.15;;
19016;SDS011;9641;51.494;6.670;2022-08-14T11:54:59;4.28;;;3.88;;
19016;SDS011;9641;51.494;6.670;2022-08-14T11:57:26;6.90;;;3.90;;
19016;SDS011;9641;51.494;6.670;2022-08-14T12:00:04;3.80;;;3.45;;
19016;SDS011;9641;51.494;6.670;2022-08-14T12:02:33;4.50;;;3.30;;
19016;SDS011;9641;51.494;6.670;2022-08-14T12:05:02;3.95;;;3.65;;
19016;SDS011;9641;51.494;6.670;2022-08-14T12:07:30;3.95;;;3.45;;
19016;SDS011;9641;51.494;6.670;2022-08-14T12:09:57;3.50;;;3.20;;
19016;SDS011;9641;51.494;6.670;2022-08-14T12:12:27;3.55;;;3.30;;
19016;SDS011;9641;51.494;6.670;2022-08-14T12:14:57;4.90;;;3.33;;
19016;SDS011;9641;51.494;6.670;2022-08-14T12:17:26;3.78;;;3.40;;
19016;SDS011;9641;51.494;6.670;2022-08-14T12:19:54;3.67;;;3.40;;
19016;SDS011;9641;51.494;6.670;2022-08-14T12:22:33;3.00;;;2.80;;
19016;SDS011;9641;51.494;6.670;2022-08-14T12:25:03;3.30;;;3.10;;
19016;SDS011;9641;51.494;6.670;2022-08-14T12:27:36;11.32;;;3.60;;
19016;SDS011;9641;51.494;6.670;2022-08-14T12:30:08;3.85;;;3.53;;
19016;SDS011;9641;51.494;6.670;2022-08-14T12:32:39;3.28;;;2.97;;
19016;SDS011;9641;51.494;6.670;2022-08-14T12:35:07;3.38;;;3.08;;
19016;SDS011;9641;51.494;6.670;2022-08-14T12:37:36;3.13;;;2.92;;
19016;SDS011;9641;51.494;6.670;2022-08-14T12:40:07;2.97;;;2.53;;
19016;SDS011;9641;51.494;6.670;2022-08-14T12:42:36;3.10;;;2.72;;
19016;SDS011;9641;51.494;6.670;2022-08-14T12:45:03;2.63;;;2.47;;
19016;SDS011;9641;51.494;6.670;2022-08-14T12:47:31;3.35;;;2.97;;
19016;SDS011;9641;51.494;6.670;2022-08-14T12:50:02;3.08;;;2.80;;
19016;SDS011;9641;51.494;6.670;2022-08-14T12:52:30;3.30;;;2.95;;
19016;SDS011;9641;51.494;6.670;2022-08-14T12:55:01;3.47;;;3.17;;
19016;SDS011;9641;51.494;6.670;2022-08-14T12:57:32;3.30;;;3.10;;
19016;SDS011;9641;51.494;6.670;2022-08-14T13:00:05;3.20;;;2.90;;
19016;SDS011;9641;51.494;6.670;2022-08-14T13:02:35;2.65;;;2.45;;
19016;SDS011;9641;51.494;6.670;2022-08-14T13:05:04;2.80;;;2.60;;
19016;SDS011;9641;51.494;6.670;2022-08-14T13:07:33;2.33;;;2.22;;
19016;SDS011;9641;51.494;6.670;2022-08-14T13:10:03;2.80;;;2.60;;
19016;SDS011;9641;51.494;6.670;2022-08-14T13:12:30;3.00;;;2.80;;
19016;SDS011;9641;51.494;6.670;2022-08-14T13:14:58;2.80;;;2.60;;
19016;SDS011;9641;51.494;6.670;2022-08-14T13:17:26;3.30;;;3.10;;
19016;SDS011;9641;51.494;6.670;2022-08-14T13:19:54;2.60;;;2.40;;
19016;SDS011;9641;51.494;6.670;2022-08-14T13:22:22;2.80;;;2.60;;
19016;SDS011;9641;51.494;6.670;2022-08-14T13:24:52;2.70;;;2.60;;
19016;SDS011;9641;51.494;6.670;2022-08-14T13:27:21;2.70;;;2.50;;
19016;SDS011;9641;51.494;6.670;2022-08-14T13:29:50;3.33;;;3.03;;
19016;SDS011;9641;51.494;6.670;2022-08-14T13:32:17;8.30;;;5.68;;
19016;SDS011;9641;51.494;6.670;2022-08-14T13:34:47;2.95;;;2.75;;
19016;SDS011;9641;51.494;6.670;2022-08-14T13:37:14;3.35;;;3.15;;
19016;SDS011;9641;51.494;6.670;2022-08-14T13:39:45;3.08;;;2.88;;
19016;SDS011;9641;51.494;6.670;2022-08-14T13:42:14;2.97;;;2.78;;
19016;SDS011;9641;51.494;6.670;2022-08-14T13:44:46;3.85;;;3.55;;
19016;SDS011;9641;51.494;6.670;2022-08-14T13:47:15;2.97;;;2.78;;
19016;SDS011;9641;51.494;6.670;2022-08-14T13:49:44;3.25;;;2.95;;
19016;SDS011;9641;51.494;6.670;2022-08-14T13:52:11;2.97;;;2.78;;
19016;SDS011;9641;51.494;6.670;2022-08-14T13:54:41;3.40;;;3.10;;
19016;SDS011;9641;51.494;6.670;2022-08-14T13:57:11;3.17;;;2.85;;
19016;SDS011;9641;51.494;6.670;2022-08-14T13:59:41;2.90;;;2.70;;
19016;SDS011;9641;51.494;6.670;2022-08-14T14:02:11;3.00;;;2.80;;
19016;SDS011;9641;51.494;6.670;2022-08-14T14:04:38;3.00;;;2.80;;
19016;SDS011;9641;51.494;6.670;2022-08-14T14:07:08;2.22;;;2.13;;
19016;SDS011;9641;51.494;6.670;2022-08-14T14:09:38;3.50;;;3.20;;
19016;SDS011;9641;51.494;6.670;2022-08-14T14:12:07;2.20;;;2.10;;
19016;SDS011;9641;51.494;6.670;2022-08-14T14:14:35;3.05;;;2.83;;
19016;SDS011;9641;51.494;6.670;2022-08-14T14:17:03;2.67;;;2.50;;
19016;SDS011;9641;51.494;6.670;2022-08-14T14:19:32;3.65;;;2.78;;
19016;SDS011;9641;51.494;6.670;2022-08-14T14:21:59;3.13;;;2.80;;
19016;SDS011;9641;51.494;6.670;2022-08-14T14:24:27;2.50;;;2.38;;
19016;SDS011;9641;51.494;6.670;2022-08-14T14:26:55;2.92;;;2.72;;
19016;SDS011;9641;51.494;6.670;2022-08-14T14:29:26;3.50;;;3.20;;
19016;SDS011;9641;51.494;6.670;2022-08-14T14:31:57;2.85;;;2.65;;
19016;SDS011;9641;51.494;6.670;2022-08-14T14:34:25;2.78;;;2.47;;
19016;SDS011;9641;51.494;6.670;2022-08-14T14:36:55;3.05;;;2.55;;
19016;SDS011;9641;51.494;6.670;2022-08-14T14:39:28;2.70;;;2.55;;
19016;SDS011;9641;51.494;6.670;2022-08-14T14:41:57;4.22;;;2.50;;
19016;SDS011;9641;51.494;6.670;2022-08-14T14:44:25;2.83;;;2.63;;
19016;SDS011;9641;51.494;6.670;2022-08-14T14:46:56;2.33;;;2.22;;
19016;SDS011;9641;51.494;6.670;2022-08-14T14:49:24;2.75;;;2.55;;
19016;SDS011;9641;51.494;6.670;2022-08-14T14:51:56;2.55;;;2.35;;
19016;SDS011;9641;51.494;6.670;2022-08-14T14:54:22;3.05;;;2.75;;
19016;SDS011;9641;51.494;6.670;2022-08-14T14:56:49;2.50;;;2.35;;
19016;SDS011;9641;51.494;6.670;2022-08-14T14:59:17;2.88;;;2.28;;
19016;SDS011;9641;51.494;6.670;2022-08-14T15:01:46;2.80;;;2.60;;
19016;SDS011;9641;51.494;6.670;2022-08-14T15:04:15;2.85;;;2.63;;
19016;SDS011;9641;51.494;6.670;2022-08-14T15:06:42;2.90;;;2.80;;
19016;SDS011;9641;51.494;6.670;2022-08-14T15:09:10;2.50;;;2.40;;
19016;SDS011;9641;51.494;6.670;2022-08-14T15:11:37;3.28;;;2.88;;
19016;SDS011;9641;51.494;6.670;2022-08-14T15:14:04;2.88;;;2.72;;
19016;SDS011;9641;51.494;6.670;2022-08-14T15:16:31;3.70;;;3.50;;
19016;SDS011;9641;51.494;6.670;2022-08-14T15:18:58;3.70;;;3.40;;